sensor_id;sensor_type;location;lat;lon;timestamp;temperature;humidity
5248;DHT22;2644;52.420;13.580;2022-08-11T00:00:17;19.40;90.40
5248;DHT22;2644;52.420;13.580;2022-08-11T00:01:23;19.30;91.10
5248;DHT22;2644;52.420;13.580;2022-08-11T00:02:31;19.30;90.80
5248;DHT22;2644;52.420;13.580;2022-08-11T00:03:35;19.20;90.80
5248;DHT22;2644;52.420;13.580;2022-08-11T00:04:44;19.20;90.80
5248;DHT22;2644;52.420;13.580;2022-08-11T00:05:50;19.20;91.20
5248;DHT22;2644;52.420;13.580;2022-08-11T00:06:54;19.20;91.20
5248;DHT22;2644;52.420;13.580;2022-08-11T00:07:58;19.20;91.40
5248;DHT22;2644;52.420;13.580;2022-08-11T00:09:04;19.10;91.60
5248;DHT22;2644;52.420;13.580;2022-08-11T00:10:10;19.10;91.60
5248;DHT22;2644;52.420;13.580;2022-08-11T00:11:13;19.10;91.60
5248;DHT22;2644;52.420;13.580;2022-08-11T00:12:18;19.10;91.70
5248;DHT22;2644;52.420;13.580;2022-08-11T00:13:22;19.00;91.60
5248;DHT22;2644;52.420;13.580;2022-08-11T00:14:32;19.00;91.70
5248;DHT22;2644;52.420;13.580;2022-08-11T00:15:41;19.00;91.60
5248;DHT22;2644;52.420;13.580;2022-08-11T00:16:53;19.00;91.50
5248;DHT22;2644;52.420;13.580;2022-08-11T00:17:58;19.00;91.30
5248;DHT22;2644;52.420;13.580;2022-08-11T00:19:01;18.90;91.40
5248;DHT22;2644;52.420;13.580;2022-08-11T00:20:07;18.90;91.60
5248;DHT22;2644;52.420;13.580;2022-08-11T00:21:16;18.90;91.70
5248;DHT22;2644;52.420;13.580;2022-08-11T00:22:42;18.90;91.90
5248;DHT22;2644;52.420;13.580;2022-08-11T00:23:53;18.90;92.10
5248;DHT22;2644;52.420;13.580;2022-08-11T00:24:56;18.90;92.20
5248;DHT22;2644;52.420;13.580;2022-08-11T00:26:06;18.80;92.30
5248;DHT22;2644;52.420;13.580;2022-08-11T00:27:08;18.80;92.20
5248;DHT22;2644;52.420;13.580;2022-08-11T00:28:26;18.80;92.20
5248;DHT22;2644;52.420;13.580;2022-08-11T00:29:28;18.80;92.00
5248;DHT22;2644;52.420;13.580;2022-08-11T00:30:38;18.80;91.90
5248;DHT22;2644;52.420;13.580;2022-08-11T00:31:43;18.80;91.90
5248;DHT22;2644;52.420;13.580;2022-08-11T00:32:54;18.80;92.00
5248;DHT22;2644;52.420;13.580;2022-08-11T00:33:58;18.70;92.00
5248;DHT22;2644;52.420;13.580;2022-08-11T00:35:05;18.80;92.00
5248;DHT22;2644;52.420;13.580;2022-08-11T00:36:38;18.70;92.00
5248;DHT22;2644;52.420;13.580;2022-08-11T00:37:44;18.70;92.10
5248;DHT22;2644;52.420;13.580;2022-08-11T00:38:51;18.70;92.30
5248;DHT22;2644;52.420;13.580;2022-08-11T00:39:56;18.70;92.60
5248;DHT22;2644;52.420;13.580;2022-08-11T00:41:15;18.70;92.50
5248;DHT22;2644;52.420;13.580;2022-08-11T00:42:30;18.70;92.50
5248;DHT22;2644;52.420;13.580;2022-08-11T00:43:50;18.60;92.60
5248;DHT22;2644;52.420;13.580;2022-08-11T00:45:08;18.60;92.80
5248;DHT22;2644;52.420;13.580;2022-08-11T00:46:21;18.60;92.80
5248;DHT22;2644;52.420;13.580;2022-08-11T00:47:42;18.50;92.90
5248;DHT22;2644;52.420;13.580;2022-08-11T00:48:58;18.50;93.10
5248;DHT22;2644;52.420;13.580;2022-08-11T00:50:12;18.50;93.30
5248;DHT22;2644;52.420;13.580;2022-08-11T00:51:31;18.50;93.50
5248;DHT22;2644;52.420;13.580;2022-08-11T00:53:11;18.50;93.80
5248;DHT22;2644;52.420;13.580;2022-08-11T00:56:47;18.40;95.00
5248;DHT22;2644;52.420;13.580;2022-08-11T00:58:45;18.40;95.20
5248;DHT22;2644;52.420;13.580;2022-08-11T01:00:03;18.40;95.20
5248;DHT22;2644;52.420;13.580;2022-08-11T01:01:09;18.30;95.10
5248;DHT22;2644;52.420;13.580;2022-08-11T01:02:17;18.30;95.10
5248;DHT22;2644;52.420;13.580;2022-08-11T01:03:31;18.30;95.10
5248;DHT22;2644;52.420;13.580;2022-08-11T01:05:02;18.30;95.20
5248;DHT22;2644;52.420;13.580;2022-08-11T01:06:27;18.30;95.20
5248;DHT22;2644;52.420;13.580;2022-08-11T01:09:30;18.20;95.30
5248;DHT22;2644;52.420;13.580;2022-08-11T01:10:52;18.20;95.80
5248;DHT22;2644;52.420;13.580;2022-08-11T01:12:17;18.20;96.00
5248;DHT22;2644;52.420;13.580;2022-08-11T01:13:50;18.10;96.10
5248;DHT22;2644;52.420;13.580;2022-08-11T01:15:20;18.10;96.10
5248;DHT22;2644;52.420;13.580;2022-08-11T01:17:02;18.10;96.40
5248;DHT22;2644;52.420;13.580;2022-08-11T01:18:52;18.10;96.60
5248;DHT22;2644;52.420;13.580;2022-08-11T01:20:09;18.00;96.80
5248;DHT22;2644;52.420;13.580;2022-08-11T01:22:18;18.00;96.50
5248;DHT22;2644;52.420;13.580;2022-08-11T01:25:53;18.00;96.50
5248;DHT22;2644;52.420;13.580;2022-08-11T01:27:31;17.90;96.80
5248;DHT22;2644;52.420;13.580;2022-08-11T01:29:13;17.90;97.10
5248;DHT22;2644;52.420;13.580;2022-08-11T01:30:46;17.90;97.20
5248;DHT22;2644;52.420;13.580;2022-08-11T01:33:55;17.80;97.50
5248;DHT22;2644;52.420;13.580;2022-08-11T01:35:26;17.80;97.70
5248;DHT22;2644;52.420;13.580;2022-08-11T01:37:05;17.80;97.80
5248;DHT22;2644;52.420;13.580;2022-08-11T01:38:37;17.70;97.90
5248;DHT22;2644;52.420;13.580;2022-08-11T01:40:10;17.70;98.20
5248;DHT22;2644;52.420;13.580;2022-08-11T01:41:51;17.70;98.00
5248;DHT22;2644;52.420;13.580;2022-08-11T01:45:26;17.70;98.50
5248;DHT22;2644;52.420;13.580;2022-08-11T01:46:35;17.60;98.50
5248;DHT22;2644;52.420;13.580;2022-08-11T01:47:46;17.60;99.00
5248;DHT22;2644;52.420;13.580;2022-08-11T01:49:02;17.60;99.20
5248;DHT22;2644;52.420;13.580;2022-08-11T01:50:36;17.60;99.30
5248;DHT22;2644;52.420;13.580;2022-08-11T01:51:59;17.60;99.60
5248;DHT22;2644;52.420;13.580;2022-08-11T01:53:11;17.60;99.00
5248;DHT22;2644;52.420;13.580;2022-08-11T01:54:31;17.60;99.00
5248;DHT22;2644;52.420;13.580;2022-08-11T01:55:45;17.50;99.00
5248;DHT22;2644;52.420;13.580;2022-08-11T01:57:00;17.50;98.80
5248;DHT22;2644;52.420;13.580;2022-08-11T01:58:14;17.60;98.90
5248;DHT22;2644;52.420;13.580;2022-08-11T01:59:20;17.50;98.90
5248;DHT22;2644;52.420;13.580;2022-08-11T02:00:28;17.50;99.00
5248;DHT22;2644;52.420;13.580;2022-08-11T02:01:49;17.60;99.10
5248;DHT22;2644;52.420;13.580;2022-08-11T02:03:02;17.60;99.20
5248;DHT22;2644;52.420;13.580;2022-08-11T02:04:17;17.60;99.50
5248;DHT22;2644;52.420;13.580;2022-08-11T02:05:42;17.50;99.70
5248;DHT22;2644;52.420;13.580;2022-08-11T02:06:52;17.50;99.90
5248;DHT22;2644;52.420;13.580;2022-08-11T02:08:07;17.50;99.90
5248;DHT22;2644;52.420;13.580;2022-08-11T02:09:19;17.50;99.70
5248;DHT22;2644;52.420;13.580;2022-08-11T02:10:30;17.50;99.90
5248;DHT22;2644;52.420;13.580;2022-08-11T02:11:58;17.50;99.50
5248;DHT22;2644;52.420;13.580;2022-08-11T02:13:11;17.50;99.70
5248;DHT22;2644;52.420;13.580;2022-08-11T02:14:25;17.40;99.80
5248;DHT22;2644;52.420;13.580;2022-08-11T02:15:37;17.40;99.90
5248;DHT22;2644;52.420;13.580;2022-08-11T02:16:50;17.40;99.80
5248;DHT22;2644;52.420;13.580;2022-08-11T02:18:04;17.40;99.50
5248;DHT22;2644;52.420;13.580;2022-08-11T02:19:21;17.40;99.70
5248;DHT22;2644;52.420;13.580;2022-08-11T02:20:50;17.40;99.50
5248;DHT22;2644;52.420;13.580;2022-08-11T02:22:30;17.30;99.90
5248;DHT22;2644;52.420;13.580;2022-08-11T02:24:12;17.30;99.90
5248;DHT22;2644;52.420;13.580;2022-08-11T02:25:25;17.30;99.90
5248;DHT22;2644;52.420;13.580;2022-08-11T02:26:34;17.30;99.90
5248;DHT22;2644;52.420;13.580;2022-08-11T02:27:44;17.30;99.90
5248;DHT22;2644;52.420;13.580;2022-08-11T02:29:00;17.20;99.90
5248;DHT22;2644;52.420;13.580;2022-08-11T02:30:08;17.20;99.90
5248;DHT22;2644;52.420;13.580;2022-08-11T02:31:15;17.20;99.90
5248;DHT22;2644;52.420;13.580;2022-08-11T02:33:07;17.20;99.90
5248;DHT22;2644;52.420;13.580;2022-08-11T02:34:37;17.20;99.90
5248;DHT22;2644;52.420;13.580;2022-08-11T02:35:49;17.20;99.90
5248;DHT22;2644;52.420;13.580;2022-08-11T02:36:57;17.20;99.90
5248;DHT22;2644;52.420;13.580;2022-08-11T02:38:12;17.20;99.90
5248;DHT22;2644;52.420;13.580;2022-08-11T02:39:19;17.20;99.90
5248;DHT22;2644;52.420;13.580;2022-08-11T02:40:33;17.20;99.90
5248;DHT22;2644;52.420;13.580;2022-08-11T02:41:43;17.20;99.90
5248;DHT22;2644;52.420;13.580;2022-08-11T02:43:17;17.20;99.90
5248;DHT22;2644;52.420;13.580;2022-08-11T02:44:33;17.20;99.90
5248;DHT22;2644;52.420;13.580;2022-08-11T02:45:47;17.20;99.90
5248;DHT22;2644;52.420;13.580;2022-08-11T02:46:57;17.20;99.90
5248;DHT22;2644;52.420;13.580;2022-08-11T02:48:09;17.20;99.90
5248;DHT22;2644;52.420;13.580;2022-08-11T02:49:43;17.20;99.90
5248;DHT22;2644;52.420;13.580;2022-08-11T02:51:16;17.20;99.90
5248;DHT22;2644;52.420;13.580;2022-08-11T02:52:30;17.20;99.90
5248;DHT22;2644;52.420;13.580;2022-08-11T02:53:48;17.20;99.90
5248;DHT22;2644;52.420;13.580;2022-08-11T02:55:17;17.20;99.90
5248;DHT22;2644;52.420;13.580;2022-08-11T02:56:47;17.20;99.90
5248;DHT22;2644;52.420;13.580;2022-08-11T02:57:58;17.20;99.90
5248;DHT22;2644;52.420;13.580;2022-08-11T02:59:07;17.20;99.90
5248;DHT22;2644;52.420;13.580;2022-08-11T03:00:39;17.20;99.90
5248;DHT22;2644;52.420;13.580;2022-08-11T03:01:49;17.20;99.90
5248;DHT22;2644;52.420;13.580;2022-08-11T03:03:14;17.20;99.90
5248;DHT22;2644;52.420;13.580;2022-08-11T03:04:23;17.10;99.90
5248;DHT22;2644;52.420;13.580;2022-08-11T03:05:50;17.20;99.90
5248;DHT22;2644;52.420;13.580;2022-08-11T03:07:00;17.10;99.90
5248;DHT22;2644;52.420;13.580;2022-08-11T03:08:26;17.10;99.90
5248;DHT22;2644;52.420;13.580;2022-08-11T03:09:43;17.10;99.90
5248;DHT22;2644;52.420;13.580;2022-08-11T03:10:56;17.00;99.90
5248;DHT22;2644;52.420;13.580;2022-08-11T03:12:24;17.00;99.90
5248;DHT22;2644;52.420;13.580;2022-08-11T03:14:11;17.00;99.90
5248;DHT22;2644;52.420;13.580;2022-08-11T03:15:42;16.90;99.90
5248;DHT22;2644;52.420;13.580;2022-08-11T03:17:23;16.90;99.90
5248;DHT22;2644;52.420;13.580;2022-08-11T03:18:32;16.90;99.90
5248;DHT22;2644;52.420;13.580;2022-08-11T03:19:47;16.90;99.90
5248;DHT22;2644;52.420;13.580;2022-08-11T03:21:06;16.90;99.90
5248;DHT22;2644;52.420;13.580;2022-08-11T03:22:18;16.80;99.90
5248;DHT22;2644;52.420;13.580;2022-08-11T03:23:29;16.80;99.90
5248;DHT22;2644;52.420;13.580;2022-08-11T03:24:42;16.80;99.90
5248;DHT22;2644;52.420;13.580;2022-08-11T03:25:50;16.80;99.90
5248;DHT22;2644;52.420;13.580;2022-08-11T03:27:02;16.80;99.90
5248;DHT22;2644;52.420;13.580;2022-08-11T03:28:17;16.80;99.90
5248;DHT22;2644;52.420;13.580;2022-08-11T03:29:27;16.80;99.90
5248;DHT22;2644;52.420;13.580;2022-08-11T03:30:41;16.70;99.90
5248;DHT22;2644;52.420;13.580;2022-08-11T03:31:48;16.70;99.90
5248;DHT22;2644;52.420;13.580;2022-08-11T03:33:07;16.70;99.90
5248;DHT22;2644;52.420;13.580;2022-08-11T03:34:37;16.70;99.90
5248;DHT22;2644;52.420;13.580;2022-08-11T03:35:44;16.80;99.90
5248;DHT22;2644;52.420;13.580;2022-08-11T03:37:13;16.80;99.90
5248;DHT22;2644;52.420;13.580;2022-08-11T03:38:45;16.80;99.90
5248;DHT22;2644;52.420;13.580;2022-08-11T03:39:56;16.80;99.90
5248;DHT22;2644;52.420;13.580;2022-08-11T03:41:07;16.70;99.90
5248;DHT22;2644;52.420;13.580;2022-08-11T03:42:56;16.70;99.90
5248;DHT22;2644;52.420;13.580;2022-08-11T03:44:07;16.70;99.90
5248;DHT22;2644;52.420;13.580;2022-08-11T03:45:21;16.70;99.90
5248;DHT22;2644;52.420;13.580;2022-08-11T03:46:35;16.60;99.90
5248;DHT22;2644;52.420;13.580;2022-08-11T03:47:52;16.60;99.90
5248;DHT22;2644;52.420;13.580;2022-08-11T03:49:06;16.60;99.90
5248;DHT22;2644;52.420;13.580;2022-08-11T03:50:25;16.60;99.90
5248;DHT22;2644;52.420;13.580;2022-08-11T03:51:35;16.60;99.90
5248;DHT22;2644;52.420;13.580;2022-08-11T03:53:08;16.60;99.90
5248;DHT22;2644;52.420;13.580;2022-08-11T03:54:16;16.60;99.90
5248;DHT22;2644;52.420;13.580;2022-08-11T03:55:29;16.60;99.90
5248;DHT22;2644;52.420;13.580;2022-08-11T04:03:39;16.60;99.90
5248;DHT22;2644;52.420;13.580;2022-08-11T04:07:03;16.70;99.90
5248;DHT22;2644;52.420;13.580;2022-08-11T04:10:28;16.70;99.90
5248;DHT22;2644;52.420;13.580;2022-08-11T04:11:59;16.70;99.90
5248;DHT22;2644;52.420;13.580;2022-08-11T04:13:39;16.70;99.90
5248;DHT22;2644;52.420;13.580;2022-08-11T04:15:15;16.70;99.90
5248;DHT22;2644;52.420;13.580;2022-08-11T04:16:42;16.80;99.90
5248;DHT22;2644;52.420;13.580;2022-08-11T04:19:46;16.70;99.90
5248;DHT22;2644;52.420;13.580;2022-08-11T04:21:19;16.70;99.90
5248;DHT22;2644;52.420;13.580;2022-08-11T04:22:53;16.70;99.90
5248;DHT22;2644;52.420;13.580;2022-08-11T04:24:20;16.70;99.90
5248;DHT22;2644;52.420;13.580;2022-08-11T04:26:05;16.70;99.90
5248;DHT22;2644;52.420;13.580;2022-08-11T04:27:32;16.80;99.90
5248;DHT22;2644;52.420;13.580;2022-08-11T04:28:48;16.70;99.90
5248;DHT22;2644;52.420;13.580;2022-08-11T04:30:06;16.70;99.90
5248;DHT22;2644;52.420;13.580;2022-08-11T04:31:38;16.70;99.90
5248;DHT22;2644;52.420;13.580;2022-08-11T04:34:50;16.60;99.90
5248;DHT22;2644;52.420;13.580;2022-08-11T04:36:09;16.60;99.90
5248;DHT22;2644;52.420;13.580;2022-08-11T04:37:35;16.60;99.90
5248;DHT22;2644;52.420;13.580;2022-08-11T04:39:00;16.60;99.90
5248;DHT22;2644;52.420;13.580;2022-08-11T04:40:54;16.60;99.90
5248;DHT22;2644;52.420;13.580;2022-08-11T04:42:25;16.60;99.90
5248;DHT22;2644;52.420;13.580;2022-08-11T04:44:19;16.70;99.90
5248;DHT22;2644;52.420;13.580;2022-08-11T04:45:37;16.70;99.90
5248;DHT22;2644;52.420;13.580;2022-08-11T04:46:56;16.70;99.90
5248;DHT22;2644;52.420;13.580;2022-08-11T04:48:38;16.60;99.90
5248;DHT22;2644;52.420;13.580;2022-08-11T04:50:19;16.70;99.90
5248;DHT22;2644;52.420;13.580;2022-08-11T04:52:14;16.70;99.90
5248;DHT22;2644;52.420;13.580;2022-08-11T04:53:49;16.70;99.90
5248;DHT22;2644;52.420;13.580;2022-08-11T04:55:56;16.70;99.90
5248;DHT22;2644;52.420;13.580;2022-08-11T04:57:29;16.70;99.90
5248;DHT22;2644;52.420;13.580;2022-08-11T04:59:19;16.80;99.90
5248;DHT22;2644;52.420;13.580;2022-08-11T05:00:52;16.70;99.90
5248;DHT22;2644;52.420;13.580;2022-08-11T05:02:57;16.80;99.90
5248;DHT22;2644;52.420;13.580;2022-08-11T05:04:19;16.90;99.90
5248;DHT22;2644;52.420;13.580;2022-08-11T05:06:01;16.80;99.90
5248;DHT22;2644;52.420;13.580;2022-08-11T05:07:49;16.90;99.90
5248;DHT22;2644;52.420;13.580;2022-08-11T05:09:20;16.90;99.90
5248;DHT22;2644;52.420;13.580;2022-08-11T05:10:39;16.90;99.90
5248;DHT22;2644;52.420;13.580;2022-08-11T05:12:13;16.90;99.90
5248;DHT22;2644;52.420;13.580;2022-08-11T05:13:26;16.90;99.90
5248;DHT22;2644;52.420;13.580;2022-08-11T05:14:50;16.90;99.90
5248;DHT22;2644;52.420;13.580;2022-08-11T05:16:14;16.90;99.90
5248;DHT22;2644;52.420;13.580;2022-08-11T05:17:39;17.00;99.90
5248;DHT22;2644;52.420;13.580;2022-08-11T05:19:03;17.00;99.90
5248;DHT22;2644;52.420;13.580;2022-08-11T05:20:25;17.00;99.90
5248;DHT22;2644;52.420;13.580;2022-08-11T05:21:52;17.10;99.90
5248;DHT22;2644;52.420;13.580;2022-08-11T05:23:13;17.20;99.90
5248;DHT22;2644;52.420;13.580;2022-08-11T05:24:40;17.20;99.90
5248;DHT22;2644;52.420;13.580;2022-08-11T05:26:40;17.40;99.90
5248;DHT22;2644;52.420;13.580;2022-08-11T05:28:09;17.50;99.90
5248;DHT22;2644;52.420;13.580;2022-08-11T05:29:43;17.50;99.90
5248;DHT22;2644;52.420;13.580;2022-08-11T05:31:14;17.50;99.90
5248;DHT22;2644;52.420;13.580;2022-08-11T05:32:38;17.60;99.90
5248;DHT22;2644;52.420;13.580;2022-08-11T05:34:09;17.60;99.90
5248;DHT22;2644;52.420;13.580;2022-08-11T05:35:36;17.70;99.90
5248;DHT22;2644;52.420;13.580;2022-08-11T05:37:04;17.80;99.50
5248;DHT22;2644;52.420;13.580;2022-08-11T05:38:30;17.80;99.40
5248;DHT22;2644;52.420;13.580;2022-08-11T05:39:56;17.90;99.00
5248;DHT22;2644;52.420;13.580;2022-08-11T05:41:22;17.90;99.10
5248;DHT22;2644;52.420;13.580;2022-08-11T05:42:49;18.00;98.80
5248;DHT22;2644;52.420;13.580;2022-08-11T05:44:17;18.00;99.10
5248;DHT22;2644;52.420;13.580;2022-08-11T05:45:39;18.10;98.40
5248;DHT22;2644;52.420;13.580;2022-08-11T05:47:07;18.10;98.50
5248;DHT22;2644;52.420;13.580;2022-08-11T05:48:32;18.20;98.60
5248;DHT22;2644;52.420;13.580;2022-08-11T05:49:53;18.20;98.80
5248;DHT22;2644;52.420;13.580;2022-08-11T05:51:16;18.30;98.30
5248;DHT22;2644;52.420;13.580;2022-08-11T05:52:38;18.30;98.80
5248;DHT22;2644;52.420;13.580;2022-08-11T05:54:03;18.40;97.90
5248;DHT22;2644;52.420;13.580;2022-08-11T05:55:30;18.50;98.50
5248;DHT22;2644;52.420;13.580;2022-08-11T05:57:05;18.60;97.70
5248;DHT22;2644;52.420;13.580;2022-08-11T05:58:11;18.60;97.80
5248;DHT22;2644;52.420;13.580;2022-08-11T05:59:16;18.60;97.90
5248;DHT22;2644;52.420;13.580;2022-08-11T06:00:20;18.70;97.80
5248;DHT22;2644;52.420;13.580;2022-08-11T06:01:26;18.70;97.80
5248;DHT22;2644;52.420;13.580;2022-08-11T06:02:32;18.80;97.80
5248;DHT22;2644;52.420;13.580;2022-08-11T06:03:34;18.90;97.50
5248;DHT22;2644;52.420;13.580;2022-08-11T06:05:00;18.80;97.60
5248;DHT22;2644;52.420;13.580;2022-08-11T06:06:07;18.90;97.90
5248;DHT22;2644;52.420;13.580;2022-08-11T06:07:11;19.10;97.80
5248;DHT22;2644;52.420;13.580;2022-08-11T06:08:27;19.20;97.20
5248;DHT22;2644;52.420;13.580;2022-08-11T06:09:31;19.30;96.70
5248;DHT22;2644;52.420;13.580;2022-08-11T06:10:38;19.30;96.40
5248;DHT22;2644;52.420;13.580;2022-08-11T06:11:42;19.50;96.60
5248;DHT22;2644;52.420;13.580;2022-08-11T06:12:51;19.70;96.40
5248;DHT22;2644;52.420;13.580;2022-08-11T06:13:55;19.90;95.90
5248;DHT22;2644;52.420;13.580;2022-08-11T06:15:04;20.10;96.30
5248;DHT22;2644;52.420;13.580;2022-08-11T06:16:07;20.40;95.50
5248;DHT22;2644;52.420;13.580;2022-08-11T06:17:11;20.70;95.20
5248;DHT22;2644;52.420;13.580;2022-08-11T06:18:16;21.00;94.50
5248;DHT22;2644;52.420;13.580;2022-08-11T06:19:20;21.30;93.70
5248;DHT22;2644;52.420;13.580;2022-08-11T06:20:26;21.60;93.40
5248;DHT22;2644;52.420;13.580;2022-08-11T06:21:34;21.80;93.00
5248;DHT22;2644;52.420;13.580;2022-08-11T06:22:38;22.10;92.80
5248;DHT22;2644;52.420;13.580;2022-08-11T06:23:43;22.40;92.40
5248;DHT22;2644;52.420;13.580;2022-08-11T06:24:51;22.80;91.80
5248;DHT22;2644;52.420;13.580;2022-08-11T06:25:54;23.10;90.80
5248;DHT22;2644;52.420;13.580;2022-08-11T06:26:58;23.20;90.70
5248;DHT22;2644;52.420;13.580;2022-08-11T06:28:16;23.40;90.00
5248;DHT22;2644;52.420;13.580;2022-08-11T06:29:23;23.60;90.30
5248;DHT22;2644;52.420;13.580;2022-08-11T06:30:48;23.90;88.90
5248;DHT22;2644;52.420;13.580;2022-08-11T06:31:55;24.20;88.10
5248;DHT22;2644;52.420;13.580;2022-08-11T06:32:59;24.40;86.80
5248;DHT22;2644;52.420;13.580;2022-08-11T06:34:11;24.60;87.60
5248;DHT22;2644;52.420;13.580;2022-08-11T06:35:35;24.70;85.60
5248;DHT22;2644;52.420;13.580;2022-08-11T06:36:49;24.90;84.10
5248;DHT22;2644;52.420;13.580;2022-08-11T06:38:04;24.80;83.40
5248;DHT22;2644;52.420;13.580;2022-08-11T06:39:23;24.80;84.20
5248;DHT22;2644;52.420;13.580;2022-08-11T06:40:35;25.10;83.00
5248;DHT22;2644;52.420;13.580;2022-08-11T06:41:47;25.40;82.40
5248;DHT22;2644;52.420;13.580;2022-08-11T06:42:54;25.80;82.80
5248;DHT22;2644;52.420;13.580;2022-08-11T06:44:06;26.00;81.80
5248;DHT22;2644;52.420;13.580;2022-08-11T06:45:19;26.00;80.20
5248;DHT22;2644;52.420;13.580;2022-08-11T06:46:30;26.00;80.40
5248;DHT22;2644;52.420;13.580;2022-08-11T06:47:34;26.30;79.30
5248;DHT22;2644;52.420;13.580;2022-08-11T06:48:41;26.50;79.60
5248;DHT22;2644;52.420;13.580;2022-08-11T06:49:46;26.70;77.90
5248;DHT22;2644;52.420;13.580;2022-08-11T06:51:09;26.80;79.10
5248;DHT22;2644;52.420;13.580;2022-08-11T06:52:15;26.90;77.60
5248;DHT22;2644;52.420;13.580;2022-08-11T06:53:39;27.00;76.80
5248;DHT22;2644;52.420;13.580;2022-08-11T06:55:07;27.20;76.60
5248;DHT22;2644;52.420;13.580;2022-08-11T06:56:32;27.40;76.70
5248;DHT22;2644;52.420;13.580;2022-08-11T06:58:17;27.30;75.60
5248;DHT22;2644;52.420;13.580;2022-08-11T06:59:39;27.50;75.20
5248;DHT22;2644;52.420;13.580;2022-08-11T07:01:06;27.50;74.70
5248;DHT22;2644;52.420;13.580;2022-08-11T07:02:15;27.50;74.40
5248;DHT22;2644;52.420;13.580;2022-08-11T07:03:22;27.80;75.00
5248;DHT22;2644;52.420;13.580;2022-08-11T07:04:31;28.00;74.10
5248;DHT22;2644;52.420;13.580;2022-08-11T07:05:40;28.10;74.30
5248;DHT22;2644;52.420;13.580;2022-08-11T07:06:59;28.20;73.30
5248;DHT22;2644;52.420;13.580;2022-08-11T07:10:44;28.60;72.90
5248;DHT22;2644;52.420;13.580;2022-08-11T07:12:33;28.60;72.20
5248;DHT22;2644;52.420;13.580;2022-08-11T07:14:00;28.90;71.50
5248;DHT22;2644;52.420;13.580;2022-08-11T07:15:25;28.80;70.70
5248;DHT22;2644;52.420;13.580;2022-08-11T07:17:08;28.60;70.80
5248;DHT22;2644;52.420;13.580;2022-08-11T07:18:27;28.70;70.50
5248;DHT22;2644;52.420;13.580;2022-08-11T07:19:52;29.00;71.70
5248;DHT22;2644;52.420;13.580;2022-08-11T07:21:26;29.20;72.50
5248;DHT22;2644;52.420;13.580;2022-08-11T07:23:08;29.30;69.50
5248;DHT22;2644;52.420;13.580;2022-08-11T07:24:31;29.60;68.70
5248;DHT22;2644;52.420;13.580;2022-08-11T07:26:03;29.60;69.00
5248;DHT22;2644;52.420;13.580;2022-08-11T07:27:30;29.70;69.60
5248;DHT22;2644;52.420;13.580;2022-08-11T07:28:54;29.70;69.70
5248;DHT22;2644;52.420;13.580;2022-08-11T07:30:03;30.00;68.40
5248;DHT22;2644;52.420;13.580;2022-08-11T07:31:07;30.40;68.60
5248;DHT22;2644;52.420;13.580;2022-08-11T07:32:21;30.50;67.80
5248;DHT22;2644;52.420;13.580;2022-08-11T07:33:31;30.70;67.00
5248;DHT22;2644;52.420;13.580;2022-08-11T07:35:06;30.70;67.50
5248;DHT22;2644;52.420;13.580;2022-08-11T07:36:12;30.90;67.90
5248;DHT22;2644;52.420;13.580;2022-08-11T07:37:16;30.70;68.60
5248;DHT22;2644;52.420;13.580;2022-08-11T07:38:24;30.60;66.20
5248;DHT22;2644;52.420;13.580;2022-08-11T07:39:46;30.30;66.90
5248;DHT22;2644;52.420;13.580;2022-08-11T07:40:49;30.50;66.90
5248;DHT22;2644;52.420;13.580;2022-08-11T07:41:56;30.80;66.60
5248;DHT22;2644;52.420;13.580;2022-08-11T07:42:59;30.90;64.90
5248;DHT22;2644;52.420;13.580;2022-08-11T07:44:05;30.90;65.10
5248;DHT22;2644;52.420;13.580;2022-08-11T07:45:10;30.80;65.90
5248;DHT22;2644;52.420;13.580;2022-08-11T07:46:31;30.80;66.00
5248;DHT22;2644;52.420;13.580;2022-08-11T07:47:53;30.70;66.00
5248;DHT22;2644;52.420;13.580;2022-08-11T07:49:16;30.50;64.90
5248;DHT22;2644;52.420;13.580;2022-08-11T07:50:40;30.30;67.00
5248;DHT22;2644;52.420;13.580;2022-08-11T07:52:02;30.40;67.10
5248;DHT22;2644;52.420;13.580;2022-08-11T07:53:23;30.50;65.40
5248;DHT22;2644;52.420;13.580;2022-08-11T07:54:27;30.60;65.70
5248;DHT22;2644;52.420;13.580;2022-08-11T07:55:34;30.80;64.70
5248;DHT22;2644;52.420;13.580;2022-08-11T07:56:53;30.80;64.90
5248;DHT22;2644;52.420;13.580;2022-08-11T07:58:16;30.90;64.60
5248;DHT22;2644;52.420;13.580;2022-08-11T07:59:55;31.00;65.00
5248;DHT22;2644;52.420;13.580;2022-08-11T08:01:20;31.00;63.70
5248;DHT22;2644;52.420;13.580;2022-08-11T08:02:42;30.70;63.70
5248;DHT22;2644;52.420;13.580;2022-08-11T08:04:05;30.90;65.20
5248;DHT22;2644;52.420;13.580;2022-08-11T08:05:28;31.00;64.00
5248;DHT22;2644;52.420;13.580;2022-08-11T08:06:49;31.40;65.50
5248;DHT22;2644;52.420;13.580;2022-08-11T08:08:12;31.50;64.10
5248;DHT22;2644;52.420;13.580;2022-08-11T08:09:34;31.70;63.10
5248;DHT22;2644;52.420;13.580;2022-08-11T08:10:55;32.00;62.80
5248;DHT22;2644;52.420;13.580;2022-08-11T08:12:19;32.10;63.20
5248;DHT22;2644;52.420;13.580;2022-08-11T08:13:41;31.90;61.40
5248;DHT22;2644;52.420;13.580;2022-08-11T08:15:06;31.90;62.20
5248;DHT22;2644;52.420;13.580;2022-08-11T08:16:28;32.10;61.20
5248;DHT22;2644;52.420;13.580;2022-08-11T08:17:50;32.10;62.80
5248;DHT22;2644;52.420;13.580;2022-08-11T08:19:16;32.20;61.00
5248;DHT22;2644;52.420;13.580;2022-08-11T08:20:23;32.70;61.50
5248;DHT22;2644;52.420;13.580;2022-08-11T08:21:29;32.90;60.40
5248;DHT22;2644;52.420;13.580;2022-08-11T08:22:31;32.70;60.20
5248;DHT22;2644;52.420;13.580;2022-08-11T08:23:50;32.80;60.30
5248;DHT22;2644;52.420;13.580;2022-08-11T08:24:57;32.30;60.40
5248;DHT22;2644;52.420;13.580;2022-08-11T08:26:02;32.20;60.10
5248;DHT22;2644;52.420;13.580;2022-08-11T08:27:05;32.10;59.80
5248;DHT22;2644;52.420;13.580;2022-08-11T08:28:10;32.00;60.90
5248;DHT22;2644;52.420;13.580;2022-08-11T08:29:15;31.80;60.80
5248;DHT22;2644;52.420;13.580;2022-08-11T08:30:36;31.80;62.00
5248;DHT22;2644;52.420;13.580;2022-08-11T08:31:51;31.50;61.20
5248;DHT22;2644;52.420;13.580;2022-08-11T08:32:53;31.80;63.90
5248;DHT22;2644;52.420;13.580;2022-08-11T08:33:58;31.70;61.80
5248;DHT22;2644;52.420;13.580;2022-08-11T08:35:02;31.70;62.40
5248;DHT22;2644;52.420;13.580;2022-08-11T08:36:06;32.00;61.00
5248;DHT22;2644;52.420;13.580;2022-08-11T08:37:17;32.10;61.50
5248;DHT22;2644;52.420;13.580;2022-08-11T08:38:43;32.10;59.50
5248;DHT22;2644;52.420;13.580;2022-08-11T08:39:49;32.20;60.70
5248;DHT22;2644;52.420;13.580;2022-08-11T08:40:52;32.00;60.00
5248;DHT22;2644;52.420;13.580;2022-08-11T08:41:58;31.70;61.00
5248;DHT22;2644;52.420;13.580;2022-08-11T08:43:05;31.80;60.90
5248;DHT22;2644;52.420;13.580;2022-08-11T08:44:12;31.60;60.60
5248;DHT22;2644;52.420;13.580;2022-08-11T08:45:36;31.50;60.60
5248;DHT22;2644;52.420;13.580;2022-08-11T08:46:43;31.20;58.40
5248;DHT22;2644;52.420;13.580;2022-08-11T08:47:51;31.00;58.90
5248;DHT22;2644;52.420;13.580;2022-08-11T08:48:59;30.90;61.20
5248;DHT22;2644;52.420;13.580;2022-08-11T08:50:05;30.70;59.30
5248;DHT22;2644;52.420;13.580;2022-08-11T08:51:18;30.20;59.80
5248;DHT22;2644;52.420;13.580;2022-08-11T08:53:00;29.90;60.10